< < Back
Terminal Aerodrome Forecast


Current Version              Previous Versions:   1  2  3  4  5  6  7  8  9  

Terminal Aerodrome Forecast

286
FTUS42 KTAE 011120
TAFABY
TAF
KABY 011120Z 0112/0212 23004KT 5SM BR SCT250
     FM011400 28005KT P6SM SCT030
     FM012000 27006KT P6SM VCTS BKN040CB
     FM020200 00000KT P6SM SCT250
     FM020600 00000KT 6SM BR OVC005=

Latest METAR

892
SAUS70 KWBC 020400
MTRABY
METAR KABY 020353Z AUTO 21005KT 7SM CLR 20/14 A3014 RMK AO2 SLP203
T02000139


USA.gov is the U.S. government's official web portal to all federal, state and local government web resources and services.